Terminal Aerodrome Forecast
Issued by NWS

Home | Current Version | Previous Version | Text Only | Print | Product List | Glossary On
Versions: 1 2 3 4 5 6 7 8 9 10 11 12 13 14 15 16
000
FTUS43 KLSX 271500 AAA
TAFUIN
TAF AMD
KUIN 271500Z 2715/2812 30010KT P6SM SCT020
     FM271600 31016G24KT P6SM SCT040
     FM280200 31008KT P6SM SKC=

USA.gov is the U.S. government's official web portal to all federal, state and local government web resources and services.